Time;durP1;ratioP1;P1;durP2;ratioP2;P2;SDS_P1;SDS_P2;PMS_P1;PMS_P2;Temp;Humidity;BMP_temperature;BMP_pressure;BME280_temperature;BME280_humidity;BME280_pressure;Samples;Min_cycle;Max_cycle;Signal;HPM_P1;HPM_P2
2021/12/14 00:01:42;;;;;;;;;;;21.00;45.40;;;;;;5069668;28;20149;-53
2021/12/14 00:04:10;;;;;;;;;;;21.00;45.40;;;;;;5097116;28;19928;-53
2021/12/14 00:06:38;;;;;;;;;;;21.00;45.40;;;;;;5049643;28;20305;-56
2021/12/14 00:09:05;;;;;;;;;;;21.00;45.40;;;;;;5054752;28;19924;-55
2021/12/14 00:11:49;;;;;;;;;;;21.00;45.40;;;;;;5069003;28;19931;-56
2021/12/14 00:15:01;;;;;;;;;;;21.00;45.40;;;;;;5068861;28;19985;-51
2021/12/14 00:17:15;;;;;;;;;;;21.00;45.40;;;;;;5069443;28;19960;-50
2021/12/14 00:19:41;;;;;;;;;;;21.00;45.40;;;;;;5068521;28;19936;-55
2021/12/14 00:22:20;;;;;;;;;;;21.00;45.40;;;;;;5071317;28;20368;-52
2021/12/14 00:24:46;;;;;;;;;;;20.90;45.30;;;;;;5071269;28;19931;-54
2021/12/14 00:27:13;;;;;;;;;;;21.00;45.40;;;;;;5070224;28;20012;-57
2021/12/14 00:29:41;;;;;;;;;;;21.00;45.40;;;;;;5066653;28;19924;-55
2021/12/14 00:32:08;;;;;;;;;;;21.00;45.30;;;;;;5083743;28;19925;-59
2021/12/14 00:34:38;;;;;;;;;;;21.00;45.40;;;;;;5055937;28;19925;-54
2021/12/14 00:37:05;;;;;;;;;;;21.00;45.30;;;;;;5068581;28;20354;-57
2021/12/14 00:39:34;;;;;;;;;;;21.00;45.30;;;;;;5069429;28;20015;-58
2021/12/14 00:42:01;;;;;;;;;;;21.00;45.30;;;;;;5070154;28;19924;-54
2021/12/14 00:44:28;;;;;;;;;;;21.00;45.30;;;;;;5069386;28;20389;-55
2021/12/14 00:46:54;;;;;;;;;;;21.00;45.30;;;;;;5068386;28;19925;-50
2021/12/14 00:49:21;;;;;;;;;;;20.90;45.20;;;;;;5069299;28;19924;-54
2021/12/14 00:51:48;;;;;;;;;;;20.90;45.20;;;;;;5068841;28;20353;-58
2021/12/14 00:54:16;;;;;;;;;;;21.00;45.90;;;;;;5067474;28;19975;-52
2021/12/14 00:56:44;;;;;;;;;;;20.90;45.20;;;;;;5064693;28;19932;-56
2021/12/14 00:59:12;;;;;;;;;;;20.90;45.20;;;;;;5052041;28;19925;-57
2021/12/14 01:01:41;;;;;;;;;;;21.00;45.30;;;;;;5070602;28;19924;-52
2021/12/14 01:04:17;;;;;;;;;;;21.00;45.30;;;;;;5069363;28;19930;-55
2021/12/14 01:06:46;;;;;;;;;;;21.00;45.20;;;;;;5069653;28;20385;-54
2021/12/14 01:09:13;;;;;;;;;;;20.90;45.10;;;;;;5071049;28;19929;-55
2021/12/14 01:11:43;;;;;;;;;;;20.90;45.10;;;;;;5066377;28;19925;-54
2021/12/14 01:14:12;;;;;;;;;;;20.90;45.10;;;;;;5050627;28;19982;-57
2021/12/14 01:16:51;;;;;;;;;;;20.90;45.10;;;;;;5070079;28;19955;-55
2021/12/14 01:19:23;;;;;;;;;;;20.90;45.10;;;;;;5070556;28;19928;-57
2021/12/14 01:22:18;;;;;;;;;;;20.90;45.10;;;;;;5069423;28;19974;-59
2021/12/14 01:25:13;;;;;;;;;;;20.90;45.10;;;;;;5069001;28;20354;-57
2021/12/14 01:27:42;;;;;;;;;;;20.90;45.10;;;;;;5082630;28;20012;-52
2021/12/14 01:30:14;;;;;;;;;;;20.90;45.10;;;;;;5082566;28;19924;-58
2021/12/14 01:32:44;;;;;;;;;;;20.90;45.10;;;;;;5048493;28;19998;-57
2021/12/14 01:35:13;;;;;;;;;;;20.90;45.10;;;;;;5057036;28;19928;-60
2021/12/14 01:37:46;;;;;;;;;;;20.90;45.10;;;;;;5068745;28;19925;-55
2021/12/14 01:40:29;;;;;;;;;;;20.90;45.10;;;;;;5070591;28;20226;-59
2021/12/14 01:42:56;;;;;;;;;;;20.90;45.10;;;;;;5049429;28;19925;-55
2021/12/14 01:45:24;;;;;;;;;;;20.90;45.10;;;;;;5049507;28;20314;-54
2021/12/14 01:47:51;;;;;;;;;;;20.90;45.10;;;;;;5068842;28;20014;-55
2021/12/14 01:50:19;;;;;;;;;;;20.90;45.10;;;;;;5071195;28;19931;-55
2021/12/14 01:52:46;;;;;;;;;;;20.90;45.10;;;;;;5088474;28;20477;-58
2021/12/14 01:55:13;;;;;;;;;;;20.90;45.10;;;;;;5053222;28;20024;-57
2021/12/14 01:57:40;;;;;;;;;;;20.90;45.10;;;;;;5071826;28;20372;-52
2021/12/14 02:00:08;;;;;;;;;;;20.90;45.10;;;;;;5073028;28;19975;-52
2021/12/14 02:02:41;;;;;;;;;;;20.90;45.10;;;;;;5071963;28;19931;-53
2021/12/14 02:05:10;;;;;;;;;;;20.90;45.00;;;;;;5069412;28;19995;-57
2021/12/14 02:07:37;;;;;;;;;;;20.90;45.00;;;;;;5066504;28;19968;-51
2021/12/14 02:10:06;;;;;;;;;;;20.90;45.00;;;;;;5072800;28;19929;-55
2021/12/14 02:12:32;;;;;;;;;;;20.90;45.00;;;;;;5072141;28;19936;-50
2021/12/14 02:15:04;;;;;;;;;;;20.90;45.00;;;;;;5072619;28;19925;-49
2021/12/14 02:17:31;;;;;;;;;;;20.90;45.00;;;;;;5072098;28;19931;-51
2021/12/14 02:20:01;;;;;;;;;;;20.90;45.00;;;;;;5073503;28;19924;-55
2021/12/14 02:22:29;;;;;;;;;;;20.90;45.00;;;;;;5071923;28;19935;-48
2021/12/14 02:24:56;;;;;;;;;;;20.90;45.00;;;;;;5072434;28;19966;-55
2021/12/14 02:27:22;;;;;;;;;;;20.90;45.00;;;;;;5073273;28;19924;-51
2021/12/14 02:29:49;;;;;;;;;;;20.90;45.00;;;;;;5072187;28;19925;-53
2021/12/14 02:32:17;;;;;;;;;;;20.90;45.00;;;;;;5071816;28;19932;-54
2021/12/14 02:34:44;;;;;;;;;;;20.90;44.90;;;;;;5071519;28;19928;-48
2021/12/14 02:37:11;;;;;;;;;;;20.90;45.00;;;;;;5071162;28;19970;-51
2021/12/14 02:40:01;;;;;;;;;;;20.90;45.00;;;;;;5073092;28;19967;-55
2021/12/14 02:42:29;;;;;;;;;;;20.90;44.90;;;;;;5072492;28;19924;-53
2021/12/14 02:44:56;;;;;;;;;;;20.90;44.90;;;;;;5071278;28;19932;-53
2021/12/14 02:47:24;;;;;;;;;;;20.90;44.90;;;;;;5068835;28;20018;-58
2021/12/14 02:49:50;;;;;;;;;;;20.90;44.90;;;;;;5070891;28;20044;-55
2021/12/14 02:52:20;;;;;;;;;;;20.90;44.90;;;;;;5070846;28;19933;-58
2021/12/14 02:54:49;;;;;;;;;;;20.90;44.90;;;;;;5070008;28;19991;-53
2021/12/14 02:57:17;;;;;;;;;;;20.90;44.90;;;;;;5071490;28;19924;-55
2021/12/14 02:59:45;;;;;;;;;;;20.90;44.90;;;;;;5072205;28;19930;-54
2021/12/14 03:02:12;;;;;;;;;;;20.90;44.90;;;;;;5072225;28;20503;-53
2021/12/14 03:04:40;;;;;;;;;;;20.90;44.90;;;;;;5070508;28;19924;-62
2021/12/14 03:07:07;;;;;;;;;;;20.90;44.90;;;;;;5071110;28;19925;-58
2021/12/14 03:09:39;;;;;;;;;;;20.90;44.90;;;;;;5070567;28;19974;-60
2021/12/14 03:12:09;;;;;;;;;;;20.90;44.90;;;;;;5071138;28;20007;-59
2021/12/14 03:14:36;;;;;;;;;;;20.90;44.80;;;;;;5070702;28;19938;-55
2021/12/14 03:17:03;;;;;;;;;;;20.90;44.80;;;;;;5072572;28;19924;-54
2021/12/14 03:19:30;;;;;;;;;;;20.90;44.80;;;;;;5070747;28;20316;-55
2021/12/14 03:21:57;;;;;;;;;;;20.90;44.80;;;;;;5070577;28;19924;-55
2021/12/14 03:24:24;;;;;;;;;;;20.90;44.80;;;;;;5067366;28;20007;-56
2021/12/14 03:26:52;;;;;;;;;;;20.90;44.90;;;;;;5067161;28;19924;-54
2021/12/14 03:29:22;;;;;;;;;;;20.90;44.80;;;;;;5070592;28;19926;-56
2021/12/14 03:31:49;;;;;;;;;;;20.90;44.80;;;;;;5071045;28;19930;-61
2021/12/14 03:34:17;;;;;;;;;;;20.90;44.80;;;;;;5070202;28;19966;-57
2021/12/14 03:36:48;;;;;;;;;;;20.90;44.80;;;;;;5070270;28;19925;-54
2021/12/14 03:39:15;;;;;;;;;;;20.90;44.80;;;;;;5070390;28;19959;-55
2021/12/14 03:41:43;;;;;;;;;;;20.90;44.80;;;;;;5071779;28;19939;-54
2021/12/14 03:44:10;;;;;;;;;;;20.90;44.80;;;;;;5070205;28;19935;-49
2021/12/14 03:46:42;;;;;;;;;;;20.90;44.80;;;;;;5070553;28;20389;-52
2021/12/14 03:49:09;;;;;;;;;;;20.90;44.80;;;;;;5066374;28;19925;-57
2021/12/14 03:51:36;;;;;;;;;;;20.90;44.80;;;;;;5050177;28;19964;-55
2021/12/14 03:54:03;;;;;;;;;;;20.90;44.80;;;;;;5054328;28;19924;-56
2021/12/14 03:56:30;;;;;;;;;;;20.90;44.80;;;;;;5063243;28;19932;-49
2021/12/14 03:58:57;;;;;;;;;;;20.90;44.80;;;;;;5070480;28;19989;-55
2021/12/14 04:01:24;;;;;;;;;;;20.80;44.70;;;;;;5070485;28;19924;-50
2021/12/14 04:03:53;;;;;;;;;;;20.90;44.80;;;;;;5069093;28;19931;-54
2021/12/14 04:06:20;;;;;;;;;;;20.90;44.80;;;;;;5069311;28;19968;-54
2021/12/14 04:08:47;;;;;;;;;;;20.90;44.70;;;;;;5069900;28;20026;-55
2021/12/14 04:11:14;;;;;;;;;;;20.90;44.70;;;;;;5070030;28;20374;-52
2021/12/14 04:13:41;;;;;;;;;;;20.90;44.70;;;;;;5069257;28;19925;-55
2021/12/14 04:16:08;;;;;;;;;;;20.90;44.70;;;;;;5069546;28;20309;-54
2021/12/14 04:18:35;;;;;;;;;;;20.90;44.70;;;;;;5071143;28;20378;-55
2021/12/14 04:21:04;;;;;;;;;;;20.90;44.70;;;;;;5069629;28;19928;-58
2021/12/14 04:23:31;;;;;;;;;;;20.90;44.70;;;;;;5070085;28;19960;-53
2021/12/14 04:25:58;;;;;;;;;;;20.90;44.70;;;;;;5070240;28;19924;-55
2021/12/14 04:28:26;;;;;;;;;;;20.90;44.70;;;;;;5071022;28;19924;-54
2021/12/14 04:30:53;;;;;;;;;;;20.90;44.70;;;;;;5069731;28;19928;-55
2021/12/14 04:33:22;;;;;;;;;;;20.90;44.70;;;;;;5069472;28;19928;-56
2021/12/14 04:35:50;;;;;;;;;;;20.90;44.70;;;;;;5071123;28;19954;-56
2021/12/14 04:38:23;;;;;;;;;;;20.90;44.70;;;;;;5070076;28;19924;-50
2021/12/14 04:51:59;;;;;;;;;;;20.90;44.60;;;;;;5094449;28;19924;-52
2021/12/14 04:54:28;;;;;;;;;;;20.90;44.60;;;;;;5069766;28;19928;-56
2021/12/14 04:56:55;;;;;;;;;;;20.90;44.70;;;;;;5061324;28;20320;-53
2021/12/14 04:59:23;;;;;;;;;;;20.90;44.60;;;;;;5069318;28;19928;-55
2021/12/14 05:01:51;;;;;;;;;;;20.90;44.60;;;;;;5069131;28;19928;-57
2021/12/14 05:04:18;;;;;;;;;;;20.90;44.60;;;;;;5069254;28;19943;-56
2021/12/14 05:06:48;;;;;;;;;;;20.90;44.60;;;;;;5069641;28;19931;-56
2021/12/14 05:09:21;;;;;;;;;;;20.90;44.60;;;;;;5069558;28;19932;-53
2021/12/14 05:11:49;;;;;;;;;;;20.90;44.60;;;;;;5069046;28;19997;-51
2021/12/14 05:14:16;;;;;;;;;;;20.90;44.60;;;;;;5049176;28;20022;-51
2021/12/14 05:16:43;;;;;;;;;;;20.90;44.60;;;;;;5063929;28;19924;-57
2021/12/14 05:19:10;;;;;;;;;;;20.90;44.60;;;;;;5070358;28;19924;-53
2021/12/14 05:21:38;;;;;;;;;;;20.90;44.60;;;;;;5069127;28;19966;-52
2021/12/14 05:24:05;;;;;;;;;;;20.90;44.60;;;;;;5069963;28;19924;-53
2021/12/14 05:26:32;;;;;;;;;;;20.90;44.60;;;;;;5073040;28;19959;-52
2021/12/14 05:29:02;;;;;;;;;;;20.90;44.60;;;;;;5056135;28;19927;-56
2021/12/14 05:31:29;;;;;;;;;;;20.90;44.60;;;;;;5074031;28;19927;-52
2021/12/14 05:33:56;;;;;;;;;;;20.90;44.60;;;;;;5073797;28;19959;-53
2021/12/14 05:36:23;;;;;;;;;;;20.90;44.50;;;;;;5072324;28;19920;-53
2021/12/14 05:38:56;;;;;;;;;;;20.90;44.50;;;;;;5073100;28;19974;-58
2021/12/14 05:44:09;;;;;;;;;;;20.90;44.50;;;;;;5073899;28;20109;-59
2021/12/14 05:46:36;;;;;;;;;;;20.90;44.50;;;;;;5073765;28;20297;-58
2021/12/14 05:49:05;;;;;;;;;;;20.90;44.50;;;;;;5072293;28;19929;-57
2021/12/14 05:51:32;;;;;;;;;;;20.90;45.10;;;;;;5072280;28;20273;-54
2021/12/14 05:53:59;;;;;;;;;;;20.90;44.50;;;;;;5072598;28;19920;-53
2021/12/14 05:56:26;;;;;;;;;;;20.90;44.50;;;;;;5072512;28;19920;-53
2021/12/14 05:58:53;;;;;;;;;;;20.90;44.50;;;;;;5072993;28;20364;-55
2021/12/14 06:01:23;;;;;;;;;;;20.90;44.40;;;;;;5071105;28;19942;-54
2021/12/14 06:03:50;;;;;;;;;;;20.90;44.50;;;;;;5072551;28;19928;-54
2021/12/14 06:06:18;;;;;;;;;;;20.80;44.40;;;;;;5073552;28;20442;-54
2021/12/14 06:08:45;;;;;;;;;;;20.90;44.40;;;;;;5072032;28;20032;-51
2021/12/14 06:11:18;;;;;;;;;;;20.90;44.40;;;;;;5072162;28;19924;-57
2021/12/14 06:13:45;;;;;;;;;;;20.90;44.40;;;;;;5073639;28;19920;-54
2021/12/14 06:16:22;;;;;;;;;;;20.90;44.40;;;;;;5073263;28;20011;-53
2021/12/14 06:18:49;;;;;;;;;;;20.90;44.40;;;;;;5072074;28;20034;-50
2021/12/14 06:21:18;;;;;;;;;;;20.90;44.40;;;;;;5071543;28;20331;-57
2021/12/14 06:23:45;;;;;;;;;;;20.90;44.40;;;;;;5068310;28;19925;-56
2021/12/14 06:26:12;;;;;;;;;;;20.90;44.40;;;;;;5071961;28;19920;-54
2021/12/14 06:28:39;;;;;;;;;;;20.90;44.40;;;;;;5070853;28;19929;-53
2021/12/14 06:31:06;;;;;;;;;;;20.90;44.40;;;;;;5071374;28;19920;-54
2021/12/14 06:33:34;;;;;;;;;;;20.90;44.40;;;;;;5066679;28;19921;-52
2021/12/14 06:36:02;;;;;;;;;;;20.90;44.40;;;;;;5070818;28;19943;-57
2021/12/14 06:38:29;;;;;;;;;;;20.90;44.40;;;;;;5070544;28;19928;-58
2021/12/14 06:41:10;;;;;;;;;;;20.90;44.40;;;;;;5071886;28;19921;-56
2021/12/14 06:43:38;;;;;;;;;;;20.90;44.40;;;;;;5067892;28;19956;-58
2021/12/14 06:46:11;;;;;;;;;;;20.90;44.40;;;;;;5072896;28;19924;-56
2021/12/14 06:48:39;;;;;;;;;;;20.90;44.40;;;;;;5069213;28;19941;-56
2021/12/14 06:51:07;;;;;;;;;;;20.90;44.40;;;;;;5070797;28;19924;-54
2021/12/14 06:53:34;;;;;;;;;;;20.90;44.40;;;;;;5071055;28;19943;-55
2021/12/14 06:56:02;;;;;;;;;;;20.90;44.30;;;;;;5071569;28;19920;-52
2021/12/14 06:58:29;;;;;;;;;;;20.90;44.30;;;;;;5069135;28;19932;-56
2021/12/14 07:00:59;;;;;;;;;;;20.90;44.40;;;;;;5062486;28;19929;-58
2021/12/14 07:03:35;;;;;;;;;;;20.80;44.30;;;;;;5093384;28;20316;-56
2021/12/14 07:06:03;;;;;;;;;;;20.90;44.30;;;;;;5070704;28;19956;-57
2021/12/14 07:08:30;;;;;;;;;;;20.90;44.30;;;;;;5094289;28;20043;-57
2021/12/14 07:10:57;;;;;;;;;;;20.80;44.30;;;;;;5070126;28;19920;-54
2021/12/14 07:13:34;;;;;;;;;;;20.90;44.30;;;;;;5067287;28;19921;-56
2021/12/14 07:16:01;;;;;;;;;;;20.90;44.30;;;;;;5058648;28;19921;-54
2021/12/14 07:18:31;;;;;;;;;;;20.90;44.30;;;;;;5062422;28;20023;-55
2021/12/14 07:20:58;;;;;;;;;;;20.90;44.30;;;;;;5069284;28;19975;-58
2021/12/14 07:23:28;;;;;;;;;;;20.90;44.30;;;;;;5063872;28;19974;-57
2021/12/14 07:25:58;;;;;;;;;;;20.90;44.30;;;;;;5050172;28;20043;-55
2021/12/14 07:28:26;;;;;;;;;;;20.90;44.30;;;;;;5063000;28;19925;-57
2021/12/14 07:30:53;;;;;;;;;;;20.90;44.30;;;;;;5076009;28;20019;-50
2021/12/14 07:33:21;;;;;;;;;;;20.90;44.30;;;;;;5068514;28;20297;-60
2021/12/14 07:35:52;;;;;;;;;;;20.80;44.20;;;;;;5070136;28;19925;-55
2021/12/14 07:38:24;;;;;;;;;;;20.90;44.30;;;;;;5069348;28;20003;-50
2021/12/14 07:40:53;;;;;;;;;;;20.80;43.50;;;;;;5067782;28;19924;-49
2021/12/14 07:43:21;;;;;;;;;;;20.80;41.30;;;;;;5064104;28;19920;-50
2021/12/14 07:45:48;;;;;;;;;;;20.70;40.50;;;;;;5069726;28;19998;-52
2021/12/14 07:48:15;;;;;;;;;;;20.60;39.60;;;;;;5058790;28;19928;-50
2021/12/14 07:50:44;;;;;;;;;;;20.50;39.40;;;;;;5069589;28;19931;-50
2021/12/14 07:53:10;;;;;;;;;;;20.30;39.30;;;;;;5063315;28;20002;-51
2021/12/14 07:55:38;;;;;;;;;;;20.20;39.20;;;;;;5057039;28;19968;-52
2021/12/14 07:58:06;;;;;;;;;;;20.10;39.50;;;;;;5059791;28;20138;-55
2021/12/14 08:00:35;;;;;;;;;;;20.00;39.70;;;;;;5064845;28;19978;-53
2021/12/14 08:03:02;;;;;;;;;;;19.90;40.30;;;;;;5067280;28;19943;-55
2021/12/14 08:05:30;;;;;;;;;;;19.80;40.70;;;;;;5066915;28;19940;-59
2021/12/14 08:07:57;;;;;;;;;;;19.80;41.10;;;;;;5070223;28;19959;-51
2021/12/14 08:10:25;;;;;;;;;;;19.80;41.40;;;;;;5061438;28;19952;-54
2021/12/14 08:12:52;;;;;;;;;;;19.80;41.60;;;;;;5074985;28;20016;-57
2021/12/14 08:15:23;;;;;;;;;;;19.90;41.80;;;;;;5067993;28;20417;-55
2021/12/14 08:18:01;;;;;;;;;;;19.90;41.90;;;;;;5058763;28;19928;-58
2021/12/14 08:20:27;;;;;;;;;;;19.90;42.00;;;;;;5056026;28;20011;-57
2021/12/14 08:22:55;;;;;;;;;;;19.90;42.10;;;;;;5064372;28;19936;-49
2021/12/14 08:25:23;;;;;;;;;;;20.00;42.20;;;;;;5067846;28;20049;-65
2021/12/14 08:28:00;;;;;;;;;;;20.00;42.20;;;;;;5064476;28;20019;-61
2021/12/14 08:30:28;;;;;;;;;;;20.10;42.30;;;;;;5061151;28;19925;-57
2021/12/14 08:32:55;;;;;;;;;;;20.10;42.30;;;;;;5066901;28;20296;-56
2021/12/14 08:35:22;;;;;;;;;;;20.20;42.50;;;;;;5066567;28;20037;-65
2021/12/14 08:37:53;;;;;;;;;;;20.20;42.60;;;;;;5059789;28;20019;-59
2021/12/14 08:40:20;;;;;;;;;;;20.20;42.60;;;;;;5053856;28;19960;-54
2021/12/14 08:42:51;;;;;;;;;;;20.20;42.60;;;;;;5063151;28;19924;-53
2021/12/14 08:45:27;;;;;;;;;;;20.30;42.60;;;;;;5056461;28;19921;-55
2021/12/14 08:47:57;;;;;;;;;;;20.30;42.60;;;;;;5057612;28;20002;-58
2021/12/14 08:50:24;;;;;;;;;;;20.30;42.80;;;;;;5065863;28;19932;-56
2021/12/14 08:52:51;;;;;;;;;;;20.30;42.70;;;;;;5060570;28;20129;-54
2021/12/14 08:55:18;;;;;;;;;;;20.30;42.70;;;;;;5058356;28;19921;-50
2021/12/14 08:57:44;;;;;;;;;;;20.40;42.90;;;;;;5060177;28;20019;-55
2021/12/14 09:00:12;;;;;;;;;;;20.40;42.90;;;;;;5067935;28;19925;-53
2021/12/14 09:02:39;;;;;;;;;;;20.40;42.90;;;;;;5060828;28;20007;-54
2021/12/14 09:05:09;;;;;;;;;;;20.40;42.90;;;;;;5065789;28;19920;-54
2021/12/14 09:07:36;;;;;;;;;;;20.40;42.90;;;;;;5062641;28;20020;-50
2021/12/14 09:10:05;;;;;;;;;;;20.40;43.00;;;;;;5066673;28;20428;-52
2021/12/14 09:12:32;;;;;;;;;;;20.50;43.00;;;;;;5067561;28;19989;-53
2021/12/14 09:15:04;;;;;;;;;;;20.50;43.00;;;;;;5061688;28;20033;-53
2021/12/14 09:17:31;;;;;;;;;;;20.50;43.00;;;;;;5087558;28;20038;-57
2021/12/14 09:19:59;;;;;;;;;;;20.50;43.00;;;;;;5069069;28;19974;-55
2021/12/14 09:22:29;;;;;;;;;;;20.50;43.10;;;;;;5061663;28;19986;-55
2021/12/14 09:24:56;;;;;;;;;;;20.50;43.10;;;;;;5065968;28;19935;-55
2021/12/14 09:27:24;;;;;;;;;;;20.50;43.10;;;;;;5067625;28;19920;-53
2021/12/14 09:29:51;;;;;;;;;;;20.60;43.20;;;;;;5057775;28;20357;-53
2021/12/14 09:32:22;;;;;;;;;;;20.60;43.20;;;;;;5057272;28;19925;-55
2021/12/14 09:34:49;;;;;;;;;;;20.60;43.20;;;;;;5056871;28;19932;-54
2021/12/14 09:37:16;;;;;;;;;;;20.60;43.20;;;;;;5061201;28;19921;-55
2021/12/14 09:39:46;;;;;;;;;;;20.60;43.20;;;;;;5065970;28;19921;-54
2021/12/14 09:42:15;;;;;;;;;;;20.60;43.30;;;;;;5066295;28;19927;-54
2021/12/14 09:44:42;;;;;;;;;;;20.60;43.30;;;;;;5054584;28;20373;-59
2021/12/14 09:47:10;;;;;;;;;;;20.60;43.20;;;;;;5060697;28;20274;-57
2021/12/14 09:49:37;;;;;;;;;;;20.70;43.30;;;;;;5062430;28;20277;-55
2021/12/14 09:52:05;;;;;;;;;;;20.70;43.30;;;;;;5060103;28;20015;-57
2021/12/14 09:54:31;;;;;;;;;;;20.70;43.40;;;;;;5063678;28;19921;-51
2021/12/14 09:57:00;;;;;;;;;;;20.70;43.40;;;;;;5090705;28;19924;-59
2021/12/14 09:59:27;;;;;;;;;;;20.70;43.40;;;;;;5060869;28;19968;-54
2021/12/14 10:01:56;;;;;;;;;;;20.70;43.30;;;;;;5094600;28;20008;-59
2021/12/14 10:04:25;;;;;;;;;;;20.70;43.40;;;;;;5066655;28;20027;-55
2021/12/14 10:06:52;;;;;;;;;;;20.70;43.40;;;;;;5065566;28;20029;-53
2021/12/14 10:09:20;;;;;;;;;;;20.70;43.40;;;;;;5066717;28;19920;-51
2021/12/14 10:12:01;;;;;;;;;;;20.70;43.40;;;;;;5062300;28;19921;-56
2021/12/14 10:14:32;;;;;;;;;;;20.70;43.50;;;;;;5066424;28;20338;-54
2021/12/14 10:17:00;;;;;;;;;;;20.70;43.50;;;;;;5070369;28;20396;-59
2021/12/14 10:19:28;;;;;;;;;;;20.80;43.60;;;;;;5070274;28;19924;-58
2021/12/14 10:21:55;;;;;;;;;;;20.70;43.50;;;;;;5103337;28;19946;-55
2021/12/14 10:24:22;;;;;;;;;;;20.80;43.60;;;;;;5070597;28;20295;-60
2021/12/14 10:26:50;;;;;;;;;;;20.80;43.60;;;;;;5069299;28;20448;-54
2021/12/14 10:29:17;;;;;;;;;;;20.80;43.60;;;;;;5067113;28;20435;-58
2021/12/14 10:31:48;;;;;;;;;;;20.80;43.60;;;;;;5069603;28;20314;-62
2021/12/14 10:34:17;;;;;;;;;;;20.80;43.60;;;;;;5070526;28;19954;-57
2021/12/14 10:36:47;;;;;;;;;;;20.80;43.60;;;;;;5062184;28;19975;-55
2021/12/14 10:39:38;;;;;;;;;;;20.80;43.70;;;;;;5070514;28;19942;-59
2021/12/14 10:44:51;;;;;;;;;;;20.80;43.70;;;;;;5102934;28;19924;-54
2021/12/14 10:47:22;;;;;;;;;;;20.80;43.70;;;;;;5070426;28;20134;-54
2021/12/14 10:49:49;;;;;;;;;;;20.80;43.70;;;;;;5066079;28;19958;-61
2021/12/14 10:52:17;;;;;;;;;;;20.80;43.70;;;;;;5069735;28;20447;-60
2021/12/14 10:54:45;;;;;;;;;;;20.80;43.70;;;;;;5070572;28;19924;-55
2021/12/14 10:57:12;;;;;;;;;;;20.80;43.70;;;;;;5070169;28;20007;-53
2021/12/14 10:59:41;;;;;;;;;;;20.90;43.80;;;;;;5067364;28;19931;-55
2021/12/14 11:02:07;;;;;;;;;;;20.90;43.80;;;;;;5069319;28;19924;-54
2021/12/14 11:04:39;;;;;;;;;;;20.90;43.80;;;;;;5069740;28;19920;-52
2021/12/14 11:07:07;;;;;;;;;;;20.90;43.80;;;;;;5070299;28;19989;-55
2021/12/14 11:09:42;;;;;;;;;;;20.90;43.80;;;;;;5069735;28;20007;-58
2021/12/14 11:12:10;;;;;;;;;;;20.90;43.80;;;;;;5070122;28;19928;-54
2021/12/14 11:14:38;;;;;;;;;;;20.90;43.80;;;;;;5069836;28;20271;-55
2021/12/14 11:19:52;;;;;;;;;;;20.90;43.80;;;;;;5064690;28;20007;-51
2021/12/14 11:22:20;;;;;;;;;;;20.90;43.80;;;;;;5069556;28;19927;-58
2021/12/14 11:24:48;;;;;;;;;;;20.90;43.80;;;;;;5066874;28;19921;-52
2021/12/14 11:27:15;;;;;;;;;;;20.90;43.80;;;;;;5069552;28;20383;-60
2021/12/14 11:29:44;;;;;;;;;;;20.90;43.90;;;;;;5068547;28;19933;-53
2021/12/14 11:32:15;;;;;;;;;;;20.90;43.90;;;;;;5070261;28;19964;-54
2021/12/14 11:34:45;;;;;;;;;;;20.90;43.90;;;;;;5058864;28;20336;-59
2021/12/14 11:37:20;;;;;;;;;;;21.00;44.00;;;;;;5065586;28;19954;-55
2021/12/14 11:39:47;;;;;;;;;;;21.00;44.00;;;;;;5056691;28;19978;-59
2021/12/14 11:42:20;;;;;;;;;;;21.00;44.00;;;;;;5069038;28;19928;-53
2021/12/14 11:44:48;;;;;;;;;;;21.00;44.00;;;;;;5069783;28;19975;-59
2021/12/14 11:47:41;;;;;;;;;;;21.00;44.00;;;;;;5069305;28;19920;-58
2021/12/14 11:50:12;;;;;;;;;;;20.90;43.90;;;;;;5065611;28;19921;-54
2021/12/14 11:52:50;;;;;;;;;;;21.00;44.00;;;;;;5060105;28;19960;-54
2021/12/14 11:55:26;;;;;;;;;;;21.00;44.00;;;;;;5068540;28;20461;-54
2021/12/14 11:58:04;;;;;;;;;;;21.00;44.00;;;;;;5054708;28;19956;-59
2021/12/14 12:00:32;;;;;;;;;;;21.00;44.10;;;;;;5081062;28;19977;-55
2021/12/14 12:02:59;;;;;;;;;;;21.00;44.10;;;;;;5065871;28;19928;-59
2021/12/14 12:05:30;;;;;;;;;;;20.90;44.00;;;;;;5059597;28;19967;-58
2021/12/14 12:10:54;;;;;;;;;;;21.00;44.10;;;;;;5080398;28;19921;-56
2021/12/14 12:13:32;;;;;;;;;;;21.00;44.10;;;;;;5068939;28;19925;-59
2021/12/14 12:15:59;;;;;;;;;;;21.00;44.10;;;;;;5090264;28;19920;-55
2021/12/14 12:18:26;;;;;;;;;;;21.00;44.10;;;;;;5066222;28;19963;-61
2021/12/14 12:20:53;;;;;;;;;;;21.00;44.10;;;;;;5066594;28;19920;-56
2021/12/14 12:23:24;;;;;;;;;;;21.00;44.10;;;;;;5067366;28;20340;-60
2021/12/14 12:25:51;;;;;;;;;;;21.00;44.10;;;;;;5064050;28;19921;-58
2021/12/14 12:28:21;;;;;;;;;;;21.00;44.10;;;;;;5066646;28;19924;-56
2021/12/14 12:30:49;;;;;;;;;;;21.00;44.10;;;;;;5066838;28;19990;-61
2021/12/14 12:33:21;;;;;;;;;;;20.90;44.10;;;;;;5066585;28;19931;-54
2021/12/14 12:35:49;;;;;;;;;;;21.00;44.10;;;;;;5065036;28;20579;-55
2021/12/14 12:38:29;;;;;;;;;;;21.00;44.20;;;;;;5067437;28;19920;-55
2021/12/14 12:40:57;;;;;;;;;;;20.90;44.10;;;;;;5064530;28;19928;-55
2021/12/14 12:43:26;;;;;;;;;;;21.00;44.20;;;;;;5062835;28;20022;-56
2021/12/14 12:45:56;;;;;;;;;;;21.00;44.30;;;;;;5065904;28;20022;-56
2021/12/14 12:48:42;;;;;;;;;;;21.00;44.20;;;;;;5068643;28;19920;-55
2021/12/14 12:51:08;;;;;;;;;;;21.00;44.30;;;;;;5061088;28;20296;-56
2021/12/14 12:53:37;;;;;;;;;;;21.00;44.30;;;;;;5069420;28;19962;-55
2021/12/14 12:56:07;;;;;;;;;;;21.00;44.30;;;;;;5062301;28;20422;-55
2021/12/14 12:58:34;;;;;;;;;;;21.00;44.30;;;;;;5064116;28;19994;-55
2021/12/14 13:01:00;;;;;;;;;;;21.00;44.30;;;;;;5088780;28;19927;-52
2021/12/14 13:03:28;;;;;;;;;;;21.00;44.40;;;;;;5067377;28;20227;-58
2021/12/14 13:05:55;;;;;;;;;;;21.00;44.30;;;;;;5090586;28;20284;-54
2021/12/14 13:08:23;;;;;;;;;;;21.00;44.30;;;;;;5066701;28;19960;-55
2021/12/14 13:10:54;;;;;;;;;;;21.00;44.40;;;;;;5064860;28;19927;-55
2021/12/14 13:13:21;;;;;;;;;;;21.10;44.50;;;;;;5093103;28;19920;-59
2021/12/14 13:15:50;;;;;;;;;;;21.10;44.50;;;;;;5062358;28;20035;-55
2021/12/14 13:18:38;;;;;;;;;;;21.10;44.50;;;;;;5066512;28;20015;-59
2021/12/14 13:21:08;;;;;;;;;;;21.10;44.50;;;;;;5071246;28;19920;-56
2021/12/14 13:23:43;;;;;;;;;;;21.10;44.50;;;;;;5078234;28;20293;-56
2021/12/14 13:26:31;;;;;;;;;;;21.10;44.50;;;;;;5072110;28;20377;-59
2021/12/14 13:28:59;;;;;;;;;;;21.10;44.50;;;;;;5070826;28;20027;-58
2021/12/14 13:31:26;;;;;;;;;;;21.10;44.50;;;;;;5069518;28;19920;-60
2021/12/14 13:33:53;;;;;;;;;;;21.10;44.50;;;;;;5072837;28;19924;-57
2021/12/14 13:36:20;;;;;;;;;;;21.10;44.50;;;;;;5070529;28;20009;-61
2021/12/14 13:38:46;;;;;;;;;;;21.10;44.50;;;;;;5064378;28;19924;-55
2021/12/14 13:41:19;;;;;;;;;;;21.10;44.50;;;;;;5063271;28;20277;-56
2021/12/14 13:43:47;;;;;;;;;;;21.10;44.50;;;;;;5062058;28;20218;-54
2021/12/14 13:46:14;;;;;;;;;;;21.10;44.50;;;;;;5069546;28;19970;-49
2021/12/14 13:48:42;;;;;;;;;;;21.10;44.50;;;;;;5071257;28;20245;-55
2021/12/14 13:51:09;;;;;;;;;;;21.10;44.50;;;;;;5067723;28;19920;-53
2021/12/14 13:53:36;;;;;;;;;;;21.10;44.60;;;;;;5100328;28;19921;-52
2021/12/14 13:56:03;;;;;;;;;;;21.10;44.60;;;;;;5072467;28;19988;-57
2021/12/14 13:58:30;;;;;;;;;;;21.10;44.60;;;;;;5071673;28;20072;-56
2021/12/14 14:00:59;;;;;;;;;;;21.10;44.60;;;;;;5069135;28;19924;-59
2021/12/14 14:03:29;;;;;;;;;;;21.10;44.60;;;;;;5068996;28;19981;-54
2021/12/14 14:05:56;;;;;;;;;;;21.10;44.60;;;;;;5069017;28;19958;-56
2021/12/14 14:08:24;;;;;;;;;;;21.20;44.70;;;;;;5068541;28;20016;-57
2021/12/14 14:10:51;;;;;;;;;;;21.20;44.80;;;;;;5065197;28;20341;-59
2021/12/14 14:13:22;;;;;;;;;;;21.20;44.80;;;;;;5068569;28;19920;-59
2021/12/14 14:15:49;;;;;;;;;;;21.10;44.70;;;;;;5067543;28;19940;-55
2021/12/14 14:18:17;;;;;;;;;;;21.10;44.70;;;;;;5091706;28;19921;-53
2021/12/14 14:20:47;;;;;;;;;;;21.20;44.80;;;;;;5069624;28;20015;-59
2021/12/14 14:23:16;;;;;;;;;;;21.20;44.80;;;;;;5070589;28;19960;-53
2021/12/14 14:25:44;;;;;;;;;;;21.20;44.80;;;;;;5069556;28;20011;-54
2021/12/14 14:28:24;;;;;;;;;;;21.20;44.80;;;;;;5067419;28;20032;-52
2021/12/14 14:30:51;;;;;;;;;;;21.20;44.80;;;;;;5069358;28;20282;-56
2021/12/14 14:33:22;;;;;;;;;;;21.20;44.80;;;;;;5067546;28;19933;-52
2021/12/14 14:35:49;;;;;;;;;;;21.20;44.80;;;;;;5070277;28;19929;-58
2021/12/14 14:38:33;;;;;;;;;;;21.20;44.80;;;;;;5073044;28;19924;-58
2021/12/14 14:41:11;;;;;;;;;;;21.20;44.80;;;;;;5068240;28;19971;-58
2021/12/14 14:43:53;;;;;;;;;;;21.20;44.80;;;;;;5068042;28;19955;-56
2021/12/14 14:46:34;;;;;;;;;;;21.20;44.80;;;;;;5079132;28;19954;-58
2021/12/14 14:49:02;;;;;;;;;;;21.20;44.90;;;;;;5069475;28;20007;-52
2021/12/14 14:51:44;;;;;;;;;;;21.20;44.90;;;;;;5067044;28;20011;-57